sensor_id;sensor_type;location;lat;lon;timestamp;pressure;altitude;pressure_sealevel;temperature;humidity
24230;BME280;12362;50.004;8.006;2023-02-17T00:01:23;101389.25;;;4.69;100.00
24230;BME280;12362;50.004;8.006;2023-02-17T00:03:50;101387.53;;;4.71;100.00
24230;BME280;12362;50.004;8.006;2023-02-17T00:06:17;101392.66;;;4.70;100.00
24230;BME280;12362;50.004;8.006;2023-02-17T00:08:44;101396.06;;;4.72;100.00
24230;BME280;12362;50.004;8.006;2023-02-17T00:11:09;101395.16;;;4.77;100.00
24230;BME280;12362;50.004;8.006;2023-02-17T00:13:35;101396.06;;;4.72;100.00
24230;BME280;12362;50.004;8.006;2023-02-17T00:16:09;101392.59;;;4.77;100.00
24230;BME280;12362;50.004;8.006;2023-02-17T00:18:35;101396.84;;;4.81;100.00
24230;BME280;12362;50.004;8.006;2023-02-17T00:21:16;101401.97;;;4.83;100.00
24230;BME280;12362;50.004;8.006;2023-02-17T00:23:42;101396.81;;;4.83;100.00
24230;BME280;12362;50.004;8.006;2023-02-17T00:26:08;101398.50;;;4.90;100.00
24230;BME280;12362;50.004;8.006;2023-02-17T00:28:34;101395.88;;;4.93;100.00
24230;BME280;12362;50.004;8.006;2023-02-17T00:31:06;101385.59;;;4.91;100.00
24230;BME280;12362;50.004;8.006;2023-02-17T00:33:32;101391.63;;;4.90;100.00
24230;BME280;12362;50.004;8.006;2023-02-17T00:35:57;101396.75;;;4.90;100.00
24230;BME280;12362;50.004;8.006;2023-02-17T00:38:23;101395.88;;;4.93;100.00
24230;BME280;12362;50.004;8.006;2023-02-17T00:40:48;101391.56;;;4.96;100.00
24230;BME280;12362;50.004;8.006;2023-02-17T00:43:14;101394.09;;;4.99;100.00
24230;BME280;12362;50.004;8.006;2023-02-17T00:45:39;101394.94;;;5.00;100.00
24230;BME280;12362;50.004;8.006;2023-02-17T00:48:05;101383.75;;;5.02;100.00
24230;BME280;12362;50.004;8.006;2023-02-17T00:50:30;101394.91;;;5.04;100.00
24230;BME280;12362;50.004;8.006;2023-02-17T00:52:56;101395.72;;;5.09;100.00
24230;BME280;12362;50.004;8.006;2023-02-17T00:55:21;101404.28;;;5.10;100.00
24230;BME280;12362;50.004;8.006;2023-02-17T00:57:47;101398.28;;;5.08;100.00
24230;BME280;12362;50.004;8.006;2023-02-17T01:00:13;101396.53;;;5.13;100.00
24230;BME280;12362;50.004;8.006;2023-02-17T01:02:39;101393.94;;;5.11;100.00
24230;BME280;12362;50.004;8.006;2023-02-17T01:05:05;101393.91;;;5.16;100.00
24230;BME280;12362;50.004;8.006;2023-02-17T01:07:30;101393.91;;;5.17;100.00
24230;BME280;12362;50.004;8.006;2023-02-17T01:09:56;101394.81;;;5.15;100.00
24230;BME280;12362;50.004;8.006;2023-02-17T01:12:21;101404.19;;;5.17;100.00
24230;BME280;12362;50.004;8.006;2023-02-17T01:14:47;101396.44;;;5.19;100.00
24230;BME280;12362;50.004;8.006;2023-02-17T01:17:12;101399.03;;;5.20;100.00
24230;BME280;12362;50.004;8.006;2023-02-17T01:19:38;101397.28;;;5.21;100.00
24230;BME280;12362;50.004;8.006;2023-02-17T01:22:03;101393.84;;;5.22;100.00
24230;BME280;12362;50.004;8.006;2023-02-17T01:24:29;101394.72;;;5.21;100.00
24230;BME280;12362;50.004;8.006;2023-02-17T01:26:54;101391.25;;;5.23;100.00
24230;BME280;12362;50.004;8.006;2023-02-17T01:29:20;101390.38;;;5.26;100.00
24230;BME280;12362;50.004;8.006;2023-02-17T01:31:46;101383.59;;;5.17;100.00
24230;BME280;12362;50.004;8.006;2023-02-17T01:34:11;101387.78;;;5.27;100.00
24230;BME280;12362;50.004;8.006;2023-02-17T01:36:43;101371.34;;;5.37;100.00
24230;BME280;12362;50.004;8.006;2023-02-17T01:39:12;101379.06;;;5.38;100.00
24230;BME280;12362;50.004;8.006;2023-02-17T01:41:38;101366.19;;;5.38;100.00
24230;BME280;12362;50.004;8.006;2023-02-17T01:44:19;101366.06;;;5.46;100.00
24230;BME280;12362;50.004;8.006;2023-02-17T01:46:49;101365.16;;;5.50;100.00
24230;BME280;12362;50.004;8.006;2023-02-17T01:49:34;101359.16;;;5.51;100.00
24230;BME280;12362;50.004;8.006;2023-02-17T01:52:09;101347.16;;;5.50;100.00
24230;BME280;12362;50.004;8.006;2023-02-17T01:54:43;101349.75;;;5.48;100.00
24230;BME280;12362;50.004;8.006;2023-02-17T01:57:12;101339.41;;;5.50;100.00
24230;BME280;12362;50.004;8.006;2023-02-17T01:59:39;101341.97;;;5.51;100.00
24230;BME280;12362;50.004;8.006;2023-02-17T02:02:06;101336.75;;;5.57;100.00
24230;BME280;12362;50.004;8.006;2023-02-17T02:04:50;101335.06;;;5.55;100.00
24230;BME280;12362;50.004;8.006;2023-02-17T02:07:25;101328.22;;;5.54;100.00
24230;BME280;12362;50.004;8.006;2023-02-17T02:09:54;101332.50;;;5.53;100.00
24230;BME280;12362;50.004;8.006;2023-02-17T02:12:28;101323.94;;;5.53;100.00
24230;BME280;12362;50.004;8.006;2023-02-17T02:14:57;101319.59;;;5.56;100.00
24230;BME280;12362;50.004;8.006;2023-02-17T02:33:59;101285.09;;;5.66;100.00
24230;BME280;12362;50.004;8.006;2023-02-17T02:36:31;101279.97;;;5.63;100.00
24230;BME280;12362;50.004;8.006;2023-02-17T02:39:06;101278.97;;;5.75;100.00
24230;BME280;12362;50.004;8.006;2023-02-17T02:41:37;101280.75;;;5.71;100.00
24230;BME280;12362;50.004;8.006;2023-02-17T02:44:07;101282.44;;;5.72;100.00
24230;BME280;12362;50.004;8.006;2023-02-17T02:46:33;101275.47;;;5.80;100.00
24230;BME280;12362;50.004;8.006;2023-02-17T02:48:59;101272.75;;;5.89;100.00
24230;BME280;12362;50.004;8.006;2023-02-17T02:51:34;101284.75;;;5.92;100.00
24230;BME280;12362;50.004;8.006;2023-02-17T02:54:40;101272.69;;;5.92;100.00
24230;BME280;12362;50.004;8.006;2023-02-17T03:05:36;101263.78;;;6.13;100.00
24230;BME280;12362;50.004;8.006;2023-02-17T03:08:14;101267.97;;;6.17;100.00
24230;BME280;12362;50.004;8.006;2023-02-17T03:10:47;101268.00;;;6.15;100.00
24230;BME280;12362;50.004;8.006;2023-02-17T03:13:14;101257.78;;;6.11;100.00
24230;BME280;12362;50.004;8.006;2023-02-17T03:15:43;101261.28;;;6.08;100.00
24230;BME280;12362;50.004;8.006;2023-02-17T03:18:10;101266.34;;;6.13;100.00
24230;BME280;12362;50.004;8.006;2023-02-17T03:20:38;101266.34;;;6.13;100.00
24230;BME280;12362;50.004;8.006;2023-02-17T03:23:08;101268.88;;;6.14;100.00
24230;BME280;12362;50.004;8.006;2023-02-17T03:25:34;101267.03;;;6.22;100.00
24230;BME280;12362;50.004;8.006;2023-02-17T03:27:59;101264.47;;;6.21;100.00
24230;BME280;12362;50.004;8.006;2023-02-17T03:30:25;101261.91;;;6.21;100.00
24230;BME280;12362;50.004;8.006;2023-02-17T03:32:51;101263.66;;;6.19;100.00
24230;BME280;12362;50.004;8.006;2023-02-17T03:35:16;101258.56;;;6.16;100.00
24230;BME280;12362;50.004;8.006;2023-02-17T03:37:41;101252.34;;;6.27;100.00
24230;BME280;12362;50.004;8.006;2023-02-17T03:40:08;101248.84;;;6.31;100.00
24230;BME280;12362;50.004;8.006;2023-02-17T03:42:33;101255.53;;;6.39;100.00
24230;BME280;12362;50.004;8.006;2023-02-17T03:44:59;101258.97;;;6.40;100.00
24230;BME280;12362;50.004;8.006;2023-02-17T03:47:26;101260.59;;;6.45;100.00
24230;BME280;12362;50.004;8.006;2023-02-17T03:49:51;101257.03;;;6.51;100.00
24230;BME280;12362;50.004;8.006;2023-02-17T03:52:17;101254.28;;;6.60;100.00
24230;BME280;12362;50.004;8.006;2023-02-17T03:54:43;101256.19;;;6.94;100.00
24230;BME280;12362;50.004;8.006;2023-02-17T03:57:09;101247.78;;;7.24;100.00
24230;BME280;12362;50.004;8.006;2023-02-17T03:59:35;101240.31;;;7.50;100.00
24230;BME280;12362;50.004;8.006;2023-02-17T04:02:00;101234.72;;;7.68;100.00
24230;BME280;12362;50.004;8.006;2023-02-17T04:04:26;101245.78;;;7.74;100.00
24230;BME280;12362;50.004;8.006;2023-02-17T04:06:51;101248.19;;;7.80;100.00
24230;BME280;12362;50.004;8.006;2023-02-17T04:09:17;101242.66;;;7.95;100.00
24230;BME280;12362;50.004;8.006;2023-02-17T04:11:43;101249.25;;;8.08;100.00
24230;BME280;12362;50.004;8.006;2023-02-17T04:14:08;101248.06;;;8.21;100.00
24230;BME280;12362;50.004;8.006;2023-02-17T04:16:34;101248.09;;;8.19;100.00
24230;BME280;12362;50.004;8.006;2023-02-17T04:19:04;101246.19;;;8.27;100.00
24230;BME280;12362;50.004;8.006;2023-02-17T04:21:29;101248.72;;;8.29;100.00
24230;BME280;12362;50.004;8.006;2023-02-17T04:23:55;101229.66;;;8.33;100.00
24230;BME280;12362;50.004;8.006;2023-02-17T04:26:21;101234.66;;;8.39;100.00
24230;BME280;12362;50.004;8.006;2023-02-17T04:28:47;101234.44;;;8.46;100.00
24230;BME280;12362;50.004;8.006;2023-02-17T04:31:12;101230.03;;;8.50;100.00
24230;BME280;12362;50.004;8.006;2023-02-17T04:33:38;101240.19;;;8.57;100.00
24230;BME280;12362;50.004;8.006;2023-02-17T04:36:04;101245.41;;;8.56;100.00
24230;BME280;12362;50.004;8.006;2023-02-17T04:38:31;101246.31;;;8.53;100.00
24230;BME280;12362;50.004;8.006;2023-02-17T04:40:58;101254.88;;;8.57;100.00
24230;BME280;12362;50.004;8.006;2023-02-17T04:43:24;101245.16;;;8.65;100.00
24230;BME280;12362;50.004;8.006;2023-02-17T04:45:51;101245.97;;;8.67;100.00
24230;BME280;12362;50.004;8.006;2023-02-17T04:48:16;101240.03;;;8.63;100.00
24230;BME280;12362;50.004;8.006;2023-02-17T04:50:42;101242.56;;;8.65;100.00
24230;BME280;12362;50.004;8.006;2023-02-17T04:53:08;101238.41;;;8.59;100.00
24230;BME280;12362;50.004;8.006;2023-02-17T04:55:33;101240.78;;;8.67;100.00
24230;BME280;12362;50.004;8.006;2023-02-17T04:57:59;101239.28;;;8.58;100.00
24230;BME280;12362;50.004;8.006;2023-02-17T05:00:26;101237.34;;;8.66;100.00
24230;BME280;12362;50.004;8.006;2023-02-17T05:02:51;101241.69;;;8.66;100.00
24230;BME280;12362;50.004;8.006;2023-02-17T05:05:18;101234.94;;;8.60;100.00
24230;BME280;12362;50.004;8.006;2023-02-17T05:07:45;101227.09;;;8.63;100.00
24230;BME280;12362;50.004;8.006;2023-02-17T05:10:12;101234.13;;;8.58;100.00
24230;BME280;12362;50.004;8.006;2023-02-17T05:12:38;101233.31;;;8.56;100.00
24230;BME280;12362;50.004;8.006;2023-02-17T05:15:05;101239.28;;;8.58;100.00
24230;BME280;12362;50.004;8.006;2023-02-17T05:17:31;101242.34;;;8.42;100.00
24230;BME280;12362;50.004;8.006;2023-02-17T05:19:57;101232.94;;;8.39;100.00
24230;BME280;12362;50.004;8.006;2023-02-17T05:22:22;101245.94;;;8.35;100.00
24230;BME280;12362;50.004;8.006;2023-02-17T05:24:48;101239.91;;;8.36;100.00
24230;BME280;12362;50.004;8.006;2023-02-17T05:27:14;101244.31;;;8.32;100.00
24230;BME280;12362;50.004;8.006;2023-02-17T05:29:39;101238.69;;;8.49;100.00
24230;BME280;12362;50.004;8.006;2023-02-17T05:32:05;101245.56;;;8.50;100.00
24230;BME280;12362;50.004;8.006;2023-02-17T05:34:31;101240.44;;;8.48;100.00
24230;BME280;12362;50.004;8.006;2023-02-17T05:36:56;101230.78;;;8.55;100.00
24230;BME280;12362;50.004;8.006;2023-02-17T05:39:22;101232.25;;;8.63;100.00
24230;BME280;12362;50.004;8.006;2023-02-17T05:41:48;101231.47;;;8.60;100.00
24230;BME280;12362;50.004;8.006;2023-02-17T05:44:14;101221.22;;;8.57;100.00
24230;BME280;12362;50.004;8.006;2023-02-17T05:46:40;101221.94;;;8.62;100.00
24230;BME280;12362;50.004;8.006;2023-02-17T05:49:06;101221.84;;;8.65;100.00
24230;BME280;12362;50.004;8.006;2023-02-17T05:51:32;101234.84;;;8.63;100.00
24230;BME280;12362;50.004;8.006;2023-02-17T05:53:57;101237.66;;;8.56;100.00
24230;BME280;12362;50.004;8.006;2023-02-17T05:56:23;101237.66;;;8.54;100.00
24230;BME280;12362;50.004;8.006;2023-02-17T05:58:48;101244.53;;;8.55;100.00
24230;BME280;12362;50.004;8.006;2023-02-17T06:01:14;101243.84;;;8.50;100.00
24230;BME280;12362;50.004;8.006;2023-02-17T06:03:39;101241.94;;;8.57;100.00
24230;BME280;12362;50.004;8.006;2023-02-17T06:06:06;101238.97;;;8.70;100.00
24230;BME280;12362;50.004;8.006;2023-02-17T06:08:32;101239.59;;;8.78;100.00
24230;BME280;12362;50.004;8.006;2023-02-17T06:10:57;101244.69;;;8.81;100.00
24230;BME280;12362;50.004;8.006;2023-02-17T06:13:23;101246.38;;;8.82;100.00
24230;BME280;12362;50.004;8.006;2023-02-17T06:15:49;101234.38;;;8.80;100.00
24230;BME280;12362;50.004;8.006;2023-02-17T06:18:15;101240.38;;;8.82;100.00
24230;BME280;12362;50.004;8.006;2023-02-17T06:20:40;101248.28;;;8.76;100.00
24230;BME280;12362;50.004;8.006;2023-02-17T06:23:06;101239.84;;;8.69;100.00
24230;BME280;12362;50.004;8.006;2023-02-17T06:25:31;101240.06;;;8.62;100.00
24230;BME280;12362;50.004;8.006;2023-02-17T06:27:57;101237.66;;;8.56;100.00
24230;BME280;12362;50.004;8.006;2023-02-17T06:30:23;101245.28;;;8.60;100.00
24230;BME280;12362;50.004;8.006;2023-02-17T06:32:49;101252.38;;;8.54;100.00
24230;BME280;12362;50.004;8.006;2023-02-17T06:35:17;101253.50;;;8.44;100.00
24230;BME280;12362;50.004;8.006;2023-02-17T06:37:43;101249.16;;;8.44;100.00
24230;BME280;12362;50.004;8.006;2023-02-17T06:40:09;101247.31;;;8.49;100.00
24230;BME280;12362;50.004;8.006;2023-02-17T06:42:36;101242.09;;;8.51;100.00
24230;BME280;12362;50.004;8.006;2023-02-17T06:45:02;101250.09;;;8.42;100.00
24230;BME280;12362;50.004;8.006;2023-02-17T06:51:37;101266.66;;;8.35;100.00
24230;BME280;12362;50.004;8.006;2023-02-17T06:54:33;101263.03;;;8.42;100.00
24230;BME280;12362;50.004;8.006;2023-02-17T06:57:12;101265.34;;;8.52;100.00
24230;BME280;12362;50.004;8.006;2023-02-17T06:59:47;101275.47;;;8.60;100.00
24230;BME280;12362;50.004;8.006;2023-02-17T07:06:10;101278.38;;;9.10;100.00
24230;BME280;12362;50.004;8.006;2023-02-17T07:08:38;101266.13;;;9.44;100.00
24230;BME280;12362;50.004;8.006;2023-02-17T07:11:06;101265.47;;;9.65;100.00
24230;BME280;12362;50.004;8.006;2023-02-17T07:13:35;101261.91;;;9.67;100.00
24230;BME280;12362;50.004;8.006;2023-02-17T07:16:03;101262.41;;;9.80;100.00
24230;BME280;12362;50.004;8.006;2023-02-17T07:18:31;101250.97;;;9.85;100.00
24230;BME280;12362;50.004;8.006;2023-02-17T07:20:59;101256.72;;;9.94;100.00
24230;BME280;12362;50.004;8.006;2023-02-17T07:23:25;101252.25;;;9.99;100.00
24230;BME280;12362;50.004;8.006;2023-02-17T07:26:35;101252.31;;;9.96;100.00
24230;BME280;12362;50.004;8.006;2023-02-17T07:29:50;101239.75;;;10.12;100.00
24230;BME280;12362;50.004;8.006;2023-02-17T07:32:19;101236.88;;;10.19;100.00
24230;BME280;12362;50.004;8.006;2023-02-17T07:34:53;101254.13;;;10.20;100.00
24230;BME280;12362;50.004;8.006;2023-02-17T07:37:45;101248.38;;;10.12;100.00
24230;BME280;12362;50.004;8.006;2023-02-17T07:40:42;101251.03;;;10.11;100.00
24230;BME280;12362;50.004;8.006;2023-02-17T07:43:08;101255.34;;;10.10;100.00
24230;BME280;12362;50.004;8.006;2023-02-17T07:45:37;101261.25;;;10.15;100.00
24230;BME280;12362;50.004;8.006;2023-02-17T07:48:03;101263.94;;;10.12;100.00
24230;BME280;12362;50.004;8.006;2023-02-17T07:50:31;101269.78;;;9.92;100.00
24230;BME280;12362;50.004;8.006;2023-02-17T07:53:00;101260.84;;;10.01;100.00
24230;BME280;12362;50.004;8.006;2023-02-17T07:55:44;101259.69;;;10.10;100.00
24230;BME280;12362;50.004;8.006;2023-02-17T07:58:09;101252.00;;;10.07;100.00
24230;BME280;12362;50.004;8.006;2023-02-17T08:00:37;101254.38;;;10.13;100.00
24230;BME280;12362;50.004;8.006;2023-02-17T08:03:06;101250.16;;;10.10;100.00
24230;BME280;12362;50.004;8.006;2023-02-17T08:05:40;101243.91;;;10.16;100.00
24230;BME280;12362;50.004;8.006;2023-02-17T08:08:08;101245.44;;;10.23;100.00
24230;BME280;12362;50.004;8.006;2023-02-17T08:10:52;101249.44;;;10.31;100.00
24230;BME280;12362;50.004;8.006;2023-02-17T08:13:37;101239.84;;;10.33;100.00
24230;BME280;12362;50.004;8.006;2023-02-17T08:16:03;101241.19;;;10.45;100.00
24230;BME280;12362;50.004;8.006;2023-02-17T08:18:41;101247.41;;;10.64;100.00
24230;BME280;12362;50.004;8.006;2023-02-17T08:21:06;101251.38;;;10.74;100.00
24230;BME280;12362;50.004;8.006;2023-02-17T08:23:32;101250.31;;;10.79;100.00
24230;BME280;12362;50.004;8.006;2023-02-17T08:26:00;101243.66;;;10.72;100.00
24230;BME280;12362;50.004;8.006;2023-02-17T08:28:25;101245.53;;;10.91;100.00
24230;BME280;12362;50.004;8.006;2023-02-17T08:30:51;101233.81;;;11.03;100.00
24230;BME280;12362;50.004;8.006;2023-02-17T08:33:17;101242.31;;;11.08;100.00
24230;BME280;12362;50.004;8.006;2023-02-17T08:35:44;101244.63;;;11.15;100.00
24230;BME280;12362;50.004;8.006;2023-02-17T08:38:13;101236.84;;;11.15;100.00
24230;BME280;12362;50.004;8.006;2023-02-17T08:40:38;101237.56;;;11.19;100.00
24230;BME280;12362;50.004;8.006;2023-02-17T08:43:07;101237.63;;;11.17;100.00
24230;BME280;12362;50.004;8.006;2023-02-17T08:45:34;101245.47;;;11.16;100.00
24230;BME280;12362;50.004;8.006;2023-02-17T08:48:04;101243.00;;;11.13;100.00
24230;BME280;12362;50.004;8.006;2023-02-17T08:50:31;101240.22;;;11.17;100.00
24230;BME280;12362;50.004;8.006;2023-02-17T08:52:57;101236.66;;;11.20;100.00
24230;BME280;12362;50.004;8.006;2023-02-17T08:55:23;101231.47;;;11.20;100.00
24230;BME280;12362;50.004;8.006;2023-02-17T08:57:49;101228.94;;;11.18;100.00
24230;BME280;12362;50.004;8.006;2023-02-17T09:00:16;101223.59;;;11.21;100.00
24230;BME280;12362;50.004;8.006;2023-02-17T09:02:42;101240.09;;;11.20;100.00
24230;BME280;12362;50.004;8.006;2023-02-17T09:05:13;101240.16;;;11.19;100.00
24230;BME280;12362;50.004;8.006;2023-02-17T09:07:39;101236.84;;;11.15;100.00
24230;BME280;12362;50.004;8.006;2023-02-17T09:10:06;101243.16;;;11.08;100.00
24230;BME280;12362;50.004;8.006;2023-02-17T09:12:32;101236.31;;;11.06;100.00
24230;BME280;12362;50.004;8.006;2023-02-17T09:14:58;101234.41;;;11.11;100.00
24230;BME280;12362;50.004;8.006;2023-02-17T09:17:24;101241.31;;;11.12;100.00
24230;BME280;12362;50.004;8.006;2023-02-17T09:19:49;101235.75;;;11.21;100.00
24230;BME280;12362;50.004;8.006;2023-02-17T09:22:15;101246.78;;;11.27;100.00
24230;BME280;12362;50.004;8.006;2023-02-17T09:24:42;101249.19;;;11.32;100.00
24230;BME280;12362;50.004;8.006;2023-02-17T09:27:08;101247.13;;;11.40;100.00
24230;BME280;12362;50.004;8.006;2023-02-17T09:29:36;101252.16;;;11.44;100.00
24230;BME280;12362;50.004;8.006;2023-02-17T09:32:06;101251.72;;;11.56;100.00
24230;BME280;12362;50.004;8.006;2023-02-17T09:34:36;101257.59;;;11.61;100.00
24230;BME280;12362;50.004;8.006;2023-02-17T09:37:03;101258.56;;;11.59;100.00
24230;BME280;12362;50.004;8.006;2023-02-17T09:39:28;101261.63;;;11.68;100.00
24230;BME280;12362;50.004;8.006;2023-02-17T09:41:54;101277.75;;;11.77;100.00
24230;BME280;12362;50.004;8.006;2023-02-17T09:44:23;101262.91;;;11.79;100.00
24230;BME280;12362;50.004;8.006;2023-02-17T09:47:03;101267.41;;;11.76;100.00
24230;BME280;12362;50.004;8.006;2023-02-17T09:49:37;101264.44;;;11.85;100.00
24230;BME280;12362;50.004;8.006;2023-02-17T09:52:22;101258.06;;;11.92;100.00
24230;BME280;12362;50.004;8.006;2023-02-17T09:55:07;101255.16;;;11.99;100.00
24230;BME280;12362;50.004;8.006;2023-02-17T10:00:57;101255.59;;;12.30;100.00
24230;BME280;12362;50.004;8.006;2023-02-17T10:03:51;101250.56;;;12.46;100.00
24230;BME280;12362;50.004;8.006;2023-02-17T10:06:30;101253.44;;;12.40;100.00
24230;BME280;12362;50.004;8.006;2023-02-17T10:11:34;101248.22;;;12.40;100.00
24230;BME280;12362;50.004;8.006;2023-02-17T10:14:44;101242.81;;;12.44;100.00
24230;BME280;12362;50.004;8.006;2023-02-17T10:17:20;101242.44;;;12.53;100.00
24230;BME280;12362;50.004;8.006;2023-02-17T10:19:55;101246.78;;;12.53;100.00
24230;BME280;12362;50.004;8.006;2023-02-17T10:22:24;101247.66;;;12.53;100.00
24230;BME280;12362;50.004;8.006;2023-02-17T10:24:51;101249.13;;;12.59;100.00
24230;BME280;12362;50.004;8.006;2023-02-17T10:27:32;101256.97;;;12.59;100.00
24230;BME280;12362;50.004;8.006;2023-02-17T10:33:05;101249.03;;;12.80;100.00
24230;BME280;12362;50.004;8.006;2023-02-17T10:35:51;101255.03;;;12.82;100.00
24230;BME280;12362;50.004;8.006;2023-02-17T10:41:02;101239.44;;;13.37;100.00
24230;BME280;12362;50.004;8.006;2023-02-17T10:43:30;101245.78;;;13.50;100.00
24230;BME280;12362;50.004;8.006;2023-02-17T10:46:01;101252.25;;;13.60;100.00
24230;BME280;12362;50.004;8.006;2023-02-17T10:48:34;101248.50;;;13.65;100.00
24230;BME280;12362;50.004;8.006;2023-02-17T10:51:00;101240.88;;;13.79;100.00
24230;BME280;12362;50.004;8.006;2023-02-17T10:53:37;101248.47;;;13.67;100.00
24230;BME280;12362;50.004;8.006;2023-02-17T10:59:02;101246.53;;;13.70;100.00
24230;BME280;12362;50.004;8.006;2023-02-17T11:01:32;101252.81;;;13.66;100.00
24230;BME280;12362;50.004;8.006;2023-02-17T11:04:00;101237.38;;;13.97;100.00
24230;BME280;12362;50.004;8.006;2023-02-17T11:06:27;101238.19;;;13.81;100.00
24230;BME280;12362;50.004;8.006;2023-02-17T11:09:05;101237.03;;;13.86;100.00
24230;BME280;12362;50.004;8.006;2023-02-17T11:11:36;101232.28;;;14.11;100.00
24230;BME280;12362;50.004;8.006;2023-02-17T11:16:51;101228.50;;;14.18;100.00
24230;BME280;12362;50.004;8.006;2023-02-17T11:19:29;101221.50;;;14.19;100.00
24230;BME280;12362;50.004;8.006;2023-02-17T11:21:57;101220.59;;;14.20;100.00
24230;BME280;12362;50.004;8.006;2023-02-17T11:24:24;101218.81;;;14.37;100.00
24230;BME280;12362;50.004;8.006;2023-02-17T11:27:07;101220.66;;;14.52;100.00
24230;BME280;12362;50.004;8.006;2023-02-17T11:29:33;101213.09;;;14.63;100.00
24230;BME280;12362;50.004;8.006;2023-02-17T11:32:04;101211.72;;;14.56;100.00
24230;BME280;12362;50.004;8.006;2023-02-17T11:34:33;101206.72;;;14.52;100.00
24230;BME280;12362;50.004;8.006;2023-02-17T11:37:20;101208.59;;;14.50;100.00
24230;BME280;12362;50.004;8.006;2023-02-17T11:39:49;101197.50;;;14.61;100.00
24230;BME280;12362;50.004;8.006;2023-02-17T11:42:30;101199.69;;;14.69;100.00
24230;BME280;12362;50.004;8.006;2023-02-17T11:44:58;101193.38;;;14.73;100.00
24230;BME280;12362;50.004;8.006;2023-02-17T11:53:02;101183.13;;;14.53;100.00
24230;BME280;12362;50.004;8.006;2023-02-17T12:09:21;101175.53;;;14.49;100.00
24230;BME280;12362;50.004;8.006;2023-02-17T12:11:55;101178.44;;;14.59;100.00
24230;BME280;12362;50.004;8.006;2023-02-17T12:17:17;101171.34;;;14.61;100.00
24230;BME280;12362;50.004;8.006;2023-02-17T12:22:44;101172.09;;;14.63;100.00
24230;BME280;12362;50.004;8.006;2023-02-17T12:25:36;101175.44;;;14.82;100.00
24230;BME280;12362;50.004;8.006;2023-02-17T12:28:40;101165.91;;;14.81;100.00
24230;BME280;12362;50.004;8.006;2023-02-17T12:34:00;101166.13;;;14.61;100.00
24230;BME280;12362;50.004;8.006;2023-02-17T12:36:31;101159.28;;;14.74;100.00
24230;BME280;12362;50.004;8.006;2023-02-17T12:39:10;101151.78;;;14.68;100.00
24230;BME280;12362;50.004;8.006;2023-02-17T12:41:44;101141.84;;;14.59;100.00
24230;BME280;12362;50.004;8.006;2023-02-17T12:44:14;101142.69;;;14.75;100.00
24230;BME280;12362;50.004;8.006;2023-02-17T12:46:43;101139.09;;;14.78;100.00
24230;BME280;12362;50.004;8.006;2023-02-17T12:49:20;101138.91;;;14.81;100.00
24230;BME280;12362;50.004;8.006;2023-02-17T12:54:38;101145.97;;;14.63;100.00
24230;BME280;12362;50.004;8.006;2023-02-17T12:59:36;101137.13;;;14.66;100.00
24230;BME280;12362;50.004;8.006;2023-02-17T13:04:39;101139.66;;;14.67;100.00
24230;BME280;12362;50.004;8.006;2023-02-17T13:07:36;101133.34;;;14.71;100.00
24230;BME280;12362;50.004;8.006;2023-02-17T13:10:05;101139.34;;;14.73;100.00
24230;BME280;12362;50.004;8.006;2023-02-17T13:12:37;101119.41;;;14.71;100.00
24230;BME280;12362;50.004;8.006;2023-02-17T13:15:24;101123.66;;;14.89;100.00
24230;BME280;12362;50.004;8.006;2023-02-17T13:17:59;101098.34;;;14.89;100.00
24230;BME280;12362;50.004;8.006;2023-02-17T13:23:33;101102.63;;;15.21;100.00
24230;BME280;12362;50.004;8.006;2023-02-17T13:28:50;101084.63;;;15.46;100.00
24230;BME280;12362;50.004;8.006;2023-02-17T13:31:23;101078.22;;;15.36;100.00
24230;BME280;12362;50.004;8.006;2023-02-17T13:33:56;101078.50;;;15.32;100.00
24230;BME280;12362;50.004;8.006;2023-02-17T13:38:59;101092.34;;;15.18;100.00
24230;BME280;12362;50.004;8.006;2023-02-17T13:41:27;101103.13;;;15.12;100.00
24230;BME280;12362;50.004;8.006;2023-02-17T13:46:57;101102.47;;;15.09;100.00
24230;BME280;12362;50.004;8.006;2023-02-17T13:49:26;101102.22;;;14.98;100.00
24230;BME280;12362;50.004;8.006;2023-02-17T13:51:53;101098.00;;;14.80;100.00
24230;BME280;12362;50.004;8.006;2023-02-17T13:54:21;101101.97;;;14.87;100.00
24230;BME280;12362;50.004;8.006;2023-02-17T13:56:51;101097.00;;;14.82;100.00
24230;BME280;12362;50.004;8.006;2023-02-17T13:59:24;101092.53;;;14.84;100.00
24230;BME280;12362;50.004;8.006;2023-02-17T14:01:51;101089.41;;;14.78;100.00
24230;BME280;12362;50.004;8.006;2023-02-17T14:04:25;101092.28;;;14.89;100.00
24230;BME280;12362;50.004;8.006;2023-02-17T14:06:52;101095.06;;;14.86;100.00
24230;BME280;12362;50.004;8.006;2023-02-17T14:11:53;101078.34;;;15.04;100.00
24230;BME280;12362;50.004;8.006;2023-02-17T14:14:23;101085.59;;;14.99;100.00
24230;BME280;12362;50.004;8.006;2023-02-17T14:17:11;101076.22;;;15.10;100.00
24230;BME280;12362;50.004;8.006;2023-02-17T14:19:42;101073.44;;;15.13;100.00
24230;BME280;12362;50.004;8.006;2023-02-17T14:22:41;101071.47;;;15.17;100.00
24230;BME280;12362;50.004;8.006;2023-02-17T14:25:11;101077.00;;;14.97;100.00
24230;BME280;12362;50.004;8.006;2023-02-17T14:27:48;101081.97;;;15.01;100.00
24230;BME280;12362;50.004;8.006;2023-02-17T14:30:29;101068.56;;;15.07;100.00
24230;BME280;12362;50.004;8.006;2023-02-17T14:33:17;101065.59;;;14.98;100.00
24230;BME280;12362;50.004;8.006;2023-02-17T14:35:59;101070.22;;;14.93;100.00
24230;BME280;12362;50.004;8.006;2023-02-17T14:38:30;101079.34;;;14.86;100.00
24230;BME280;12362;50.004;8.006;2023-02-17T14:40:57;101069.66;;;14.88;100.00